Аэропорт: Мирный. Мирный

ICAO: UERR

METAR:
2019-11-21 09:00:00
UERR 210900Z 21002MPS CAVOK M29/M32 Q1009 R25/390139 NOSIG RMK QFE725
METAR:
2019-11-21 08:00:00
TAF UERR 210800Z 2109/2209 23003G08MPS CAVOK TEMPO 2109/2115 4000 -SN OVC100